Decoded Metar for KIZG (FRYEBURG in ME, USA) (IATA:IZG) | Meteo·Mobile Aviation Weather
aviador You're here:

KIZG Decoded Metar

FRYEBURG in ME, USA
Report Time2018-11-20 04:54:00
UTC Time2018-11-20 05:33:52
Flight Rules vfr VFR
WindCalm
Visibility9999 m
Phenomena:N/A
Clouds:Broken 070 Hf
Overcast 080 Hf
Expected CloudBase > 400 ft AGL from Temp-Dew spread
Ceiling7,000 ft
Temp-3°C (ISA -17)
Dew Point-4°C (93% RH)
AAT-5.5°C
QNH1016 hPa
Density Alt-1,699 ft
Elevation443 ft
Report Wrong Elevation
Raw Report
KIZG 200454Z AUTO 00000KT 10SM BKN070 OVC080 M03/M04 A3000 RMK AO2
SLP165 T10281039 400171061=

Extra information for KIZG:More info

Metar Taf Metar & Taf Last 4 Metars F.Rules Stats Wind Profile Meteogram Temp Stats Airport Information Weather charts Add Link Nearby VenuesMetar ALERT Operation Metar Decoded Social comments

AIRNAV info for KIZG